Time;durP1;ratioP1;P1;durP2;ratioP2;P2;SDS_P1;SDS_P2;PMS_P1;PMS_P2;Temp;Humidity;BMP_temperature;BMP_pressure;BME280_temperature;BME280_humidity;BME280_pressure;Samples;Min_cycle;Max_cycle;Signal;HPM_P1;HPM_P2
2022/11/25 00:01:23;;;;;;;28.50;19.97;;;4.80;99.90;;;;;;5073927;28;20440;-78
2022/11/25 00:03:52;;;;;;;29.67;20.67;;;4.80;99.90;;;;;;5072393;28;20990;-77
2022/11/25 00:06:22;;;;;;;31.23;21.23;;;4.80;99.90;;;;;;5072327;28;20548;-78
2022/11/25 00:08:52;;;;;;;30.90;19.73;;;4.90;99.90;;;;;;5072445;28;20434;-80
2022/11/25 00:11:20;;;;;;;30.63;20.03;;;4.80;99.90;;;;;;5074277;28;20479;-78
2022/11/25 00:13:49;;;;;;;25.47;19.50;;;4.90;99.90;;;;;;5072585;28;20986;-78
2022/11/25 00:16:19;;;;;;;30.10;19.00;;;4.90;99.90;;;;;;5074129;28;20926;-77
2022/11/25 00:18:49;;;;;;;25.00;17.63;;;4.80;99.90;;;;;;5072607;28;20468;-77
2022/11/25 00:21:20;;;;;;;26.63;19.93;;;4.90;99.90;;;;;;5074339;28;20418;-78
2022/11/25 00:23:52;;;;;;;27.13;18.97;;;4.90;99.90;;;;;;5072142;28;20469;-78
2022/11/25 00:26:21;;;;;;;23.80;19.10;;;4.80;99.90;;;;;;5073934;28;20432;-77
2022/11/25 00:28:50;;;;;;;28.50;17.77;;;4.90;99.90;;;;;;5073337;28;20445;-77
2022/11/25 00:31:19;;;;;;;25.00;17.83;;;4.90;99.90;;;;;;5071953;28;20510;-77
2022/11/25 00:33:50;;;;;;;25.67;17.13;;;4.90;99.90;;;;;;5077382;28;20448;-78
2022/11/25 00:36:20;;;;;;;26.37;17.27;;;4.90;99.90;;;;;;5074188;28;20453;-77
2022/11/25 00:38:53;;;;;;;21.70;16.27;;;4.90;99.90;;;;;;5073276;28;20536;-77
2022/11/25 00:46:55;;;;;;;21.50;16.00;;;4.90;99.90;;;;;;5072033;28;20446;-77
2022/11/25 00:49:24;;;;;;;19.90;14.63;;;4.90;99.90;;;;;;5071905;28;20449;-77
2022/11/25 00:51:52;;;;;;;21.40;15.10;;;4.90;99.90;;;;;;5072252;28;20977;-77
2022/11/25 00:54:21;;;;;;;21.53;15.47;;;4.90;99.90;;;;;;5071861;28;20550;-78
2022/11/25 00:56:49;;;;;;;26.17;15.73;;;4.90;99.90;;;;;;5073426;28;20440;-77
2022/11/25 00:59:17;;;;;;;21.20;15.50;;;5.00;99.90;;;;;;5073300;28;20488;-77
2022/11/25 01:01:45;;;;;;;28.97;16.50;;;5.00;99.90;;;;;;5071829;28;20507;-77
2022/11/25 01:04:14;;;;;;;24.83;15.80;;;4.90;99.90;;;;;;5073727;28;20469;-77
2022/11/25 01:06:43;;;;;;;22.63;15.90;;;5.00;99.90;;;;;;5075838;28;20477;-77
2022/11/25 01:09:14;;;;;;;19.60;13.53;;;5.00;99.90;;;;;;5075703;28;20445;-77
2022/11/25 01:11:42;;;;;;;22.33;14.40;;;5.00;99.90;;;;;;5075730;28;20930;-77
2022/11/25 01:14:11;;;;;;;22.40;15.03;;;5.00;99.90;;;;;;5075575;28;20465;-77
2022/11/25 01:16:39;;;;;;;22.93;14.27;;;5.00;99.90;;;;;;5075591;28;20456;-77
2022/11/25 01:19:07;;;;;;;19.37;14.47;;;4.90;99.90;;;;;;5075512;28;20874;-77
2022/11/25 01:21:36;;;;;;;20.40;13.80;;;5.00;99.90;;;;;;5075518;28;20449;-77
2022/11/25 01:24:06;;;;;;;23.07;13.33;;;5.00;99.90;;;;;;5075627;28;20469;-77
2022/11/25 01:26:36;;;;;;;20.77;14.20;;;5.00;99.90;;;;;;5075441;28;20931;-77
2022/11/25 01:29:05;;;;;;;19.83;14.33;;;5.00;99.90;;;;;;5076573;28;20426;-77
2022/11/25 01:31:36;;;;;;;28.60;13.60;;;5.00;99.90;;;;;;5075222;28;20824;-77
2022/11/25 01:34:06;;;;;;;19.47;14.70;;;5.00;99.90;;;;;;5075268;28;20469;-77
2022/11/25 01:36:35;;;;;;;17.30;13.50;;;5.00;99.90;;;;;;5075288;28;20433;-77
2022/11/25 01:39:05;;;;;;;21.07;13.77;;;4.90;99.90;;;;;;5075121;28;20465;-77
2022/11/25 01:41:35;;;;;;;23.60;14.30;;;4.90;99.90;;;;;;5075054;28;20449;-77
2022/11/25 01:44:08;;;;;;;26.63;14.57;;;5.00;99.90;;;;;;5075015;28;20530;-77
2022/11/25 01:46:47;;;;;;;24.47;14.90;;;5.00;99.90;;;;;;5075181;28;20437;-77
2022/11/25 01:49:19;;;;;;;19.87;13.70;;;4.90;99.90;;;;;;5074980;28;20537;-77
2022/11/25 01:51:51;;;;;;;21.43;13.83;;;5.00;99.90;;;;;;5075239;28;20871;-77
2022/11/25 01:54:25;;;;;;;25.00;13.93;;;4.90;99.90;;;;;;5076446;28;20475;-77
2022/11/25 01:56:57;;;;;;;16.60;11.80;;;4.90;99.90;;;;;;5074879;28;20433;-77
2022/11/25 01:59:26;;;;;;;20.10;13.23;;;5.00;99.90;;;;;;5074762;28;21002;-77
2022/11/25 02:01:54;;;;;;;17.90;12.50;;;4.90;99.90;;;;;;5074747;28;20445;-77
2022/11/25 02:04:25;;;;;;;18.70;11.20;;;5.00;99.90;;;;;;5074612;28;20476;-77
2022/11/25 02:06:59;;;;;;;18.33;10.63;;;5.00;99.90;;;;;;5074757;28;20441;-77
2022/11/25 02:09:29;;;;;;;16.13;11.20;;;5.00;99.90;;;;;;5074674;28;20441;-77
2022/11/25 02:11:58;;;;;;;20.00;11.10;;;5.00;99.90;;;;;;5074597;28;20523;-77
2022/11/25 02:14:26;;;;;;;22.73;10.97;;;5.00;99.90;;;;;;5074367;28;20477;-77
2022/11/25 02:16:55;;;;;;;19.67;11.73;;;5.00;99.90;;;;;;5073611;28;20857;-77
2022/11/25 02:19:28;;;;;;;20.67;11.07;;;5.00;99.90;;;;;;5074328;28;20826;-77
2022/11/25 02:22:01;;;;;;;15.37;10.50;;;5.00;99.90;;;;;;5076026;28;20780;-77
2022/11/25 02:24:40;;;;;;;15.40;10.33;;;5.00;99.90;;;;;;5075565;28;20983;-77
2022/11/25 02:27:09;;;;;;;21.43;10.40;;;5.00;99.90;;;;;;5074348;28;20555;-77
2022/11/25 02:29:38;;;;;;;21.13;9.87;;;5.00;99.90;;;;;;5074198;28;20441;-77
2022/11/25 02:32:07;;;;;;;15.93;9.03;;;5.00;99.90;;;;;;5074144;28;20453;-77
2022/11/25 02:34:35;;;;;;;19.27;10.17;;;5.00;99.90;;;;;;5074121;28;20457;-77
2022/11/25 02:37:03;;;;;;;15.70;9.90;;;5.00;99.90;;;;;;5074151;28;20448;-77
2022/11/25 02:39:32;;;;;;;17.10;9.83;;;5.00;99.90;;;;;;5073968;28;20503;-77
2022/11/25 02:42:00;;;;;;;14.23;8.80;;;5.00;99.90;;;;;;5073944;28;20445;-77
2022/11/25 02:44:30;;;;;;;17.63;9.20;;;5.00;99.90;;;;;;5073928;28;20531;-77
2022/11/25 02:46:58;;;;;;;13.33;8.47;;;5.00;99.90;;;;;;5075776;28;20478;-77
2022/11/25 02:49:26;;;;;;;15.37;8.20;;;5.10;99.90;;;;;;5073900;28;20437;-77
2022/11/25 02:51:54;;;;;;;17.37;9.20;;;5.10;99.90;;;;;;5073809;28;20495;-77
2022/11/25 02:54:23;;;;;;;15.37;9.17;;;5.10;99.90;;;;;;5073647;28;20497;-77
2022/11/25 02:56:51;;;;;;;17.43;9.33;;;5.10;99.90;;;;;;5074080;28;20801;-77
2022/11/25 02:59:19;;;;;;;17.17;8.93;;;5.10;99.90;;;;;;5073566;28;20518;-77
2022/11/25 03:01:49;;;;;;;14.17;8.07;;;5.10;99.90;;;;;;5073610;28;20452;-77
2022/11/25 03:04:17;;;;;;;14.37;8.70;;;5.10;99.90;;;;;;5073539;28;20568;-77
2022/11/25 03:06:45;;;;;;;17.83;9.10;;;5.10;99.90;;;;;;5073531;28;20494;-77
2022/11/25 03:09:13;;;;;;;13.77;8.40;;;5.20;99.90;;;;;;5073703;28;20541;-77
2022/11/25 03:14:27;;;;;;;15.33;9.20;;;5.20;99.90;;;;;;5073530;28;20891;-77
2022/11/25 03:16:56;;;;;;;15.93;8.43;;;5.20;99.90;;;;;;5073317;28;20445;-77
2022/11/25 03:19:26;;;;;;;16.27;8.23;;;5.20;99.90;;;;;;5074025;28;20472;-77
2022/11/25 03:21:54;;;;;;;14.50;8.77;;;5.30;99.90;;;;;;5073232;28;20445;-77
2022/11/25 03:24:22;;;;;;;16.00;8.10;;;5.30;99.90;;;;;;5073100;28;20572;-77
2022/11/25 03:26:50;;;;;;;15.23;8.17;;;5.30;99.90;;;;;;5072916;28;20449;-77
2022/11/25 03:29:18;;;;;;;15.93;8.80;;;5.30;99.90;;;;;;5073030;28;20485;-77
2022/11/25 03:31:47;;;;;;;17.13;9.00;;;5.30;99.90;;;;;;5072901;28;20441;-77
2022/11/25 03:34:18;;;;;;;19.40;9.00;;;5.40;99.90;;;;;;5073768;28;20542;-77
2022/11/25 03:36:46;;;;;;;15.23;8.07;;;5.40;99.90;;;;;;5072957;28;20457;-77
2022/11/25 03:39:15;;;;;;;13.23;7.57;;;5.40;99.90;;;;;;5072772;28;20468;-77
2022/11/25 03:41:43;;;;;;;14.93;8.63;;;5.40;99.90;;;;;;5072802;28;21041;-77
2022/11/25 03:44:13;;;;;;;17.27;7.80;;;5.50;99.90;;;;;;5073002;28;20571;-77
2022/11/25 03:46:42;;;;;;;16.13;8.20;;;5.50;99.90;;;;;;5072875;28;20445;-77
2022/11/25 03:49:10;;;;;;;14.63;7.20;;;5.50;99.90;;;;;;5072815;28;20970;-77
2022/11/25 03:51:41;;;;;;;17.13;7.50;;;5.60;99.90;;;;;;5073006;28;20903;-77
2022/11/25 03:54:09;;;;;;;19.57;7.50;;;5.60;99.90;;;;;;5074767;28;20457;-77
2022/11/25 03:57:03;;;;;;;12.37;7.03;;;5.60;99.90;;;;;;5074571;28;20528;-77
2022/11/25 03:59:33;;;;;;;13.20;7.93;;;5.60;99.90;;;;;;5075300;28;20468;-77
2022/11/25 04:02:03;;;;;;;12.10;7.63;;;5.60;99.90;;;;;;5074336;28;20556;-77
2022/11/25 04:04:31;;;;;;;12.57;7.10;;;5.60;99.90;;;;;;5073323;28;20469;-77
2022/11/25 04:07:02;;;;;;;14.93;6.90;;;5.60;99.90;;;;;;5074514;28;20518;-78
2022/11/25 04:09:30;;;;;;;22.13;13.50;;;5.70;99.90;;;;;;5075646;28;20440;-77
2022/11/25 04:14:53;;;;;;;22.63;13.53;;;5.70;99.90;;;;;;5073384;28;20552;-77
2022/11/25 04:17:23;;;;;;;22.03;13.50;;;5.70;99.90;;;;;;5072708;28;20454;-77
2022/11/25 04:19:52;;;;;;;17.27;10.57;;;5.70;99.90;;;;;;5072540;28;20526;-77
2022/11/25 04:22:22;;;;;;;18.87;8.60;;;5.80;99.90;;;;;;5072937;28;20444;-77
2022/11/25 04:24:51;;;;;;;18.17;12.13;;;5.80;99.90;;;;;;5075724;28;20493;-77
2022/11/25 04:27:24;;;;;;;14.33;7.93;;;5.80;99.90;;;;;;5074451;28;20437;-77
2022/11/25 04:29:54;;;;;;;16.10;7.20;;;5.80;99.90;;;;;;5074752;28;20902;-77
2022/11/25 04:32:23;;;;;;;11.73;6.57;;;5.80;99.90;;;;;;5072779;28;20445;-77
2022/11/25 04:34:51;;;;;;;15.90;7.40;;;5.90;99.90;;;;;;5072324;28;20469;-77
2022/11/25 04:37:21;;;;;;;15.27;6.90;;;5.80;99.90;;;;;;5072239;28;20451;-77
2022/11/25 04:39:49;;;;;;;12.03;6.70;;;5.90;99.90;;;;;;5071466;28;20466;-77
2022/11/25 04:42:35;;;;;;;13.63;6.43;;;5.90;99.90;;;;;;5072028;28;20449;-77
2022/11/25 04:45:09;;;;;;;11.93;6.07;;;5.90;99.90;;;;;;5072306;28;20859;-77
2022/11/25 04:47:55;;;;;;;19.90;10.60;;;5.90;99.90;;;;;;5072163;28;20442;-77
2022/11/25 04:50:24;;;;;;;20.40;12.93;;;5.90;99.90;;;;;;5072068;28;20504;-77
2022/11/25 04:53:06;;;;;;;16.77;8.83;;;5.90;99.90;;;;;;5071841;28;20465;-77
2022/11/25 04:55:34;;;;;;;12.67;7.60;;;5.90;99.90;;;;;;5071877;28;20449;-77
2022/11/25 04:58:06;;;;;;;14.70;7.93;;;6.00;99.90;;;;;;5072006;28;20502;-77
2022/11/25 05:00:35;;;;;;;14.23;6.37;;;5.90;99.90;;;;;;5071881;28;20465;-77
2022/11/25 05:03:06;;;;;;;13.40;6.83;;;6.00;99.90;;;;;;5071858;28;20472;-77
2022/11/25 05:05:38;;;;;;;12.63;6.67;;;6.00;99.90;;;;;;5071908;28;20525;-77
2022/11/25 05:08:08;;;;;;;12.60;6.23;;;6.00;99.90;;;;;;5072165;28;20453;-77
2022/11/25 05:10:36;;;;;;;13.03;7.00;;;6.00;99.90;;;;;;5071778;28;20961;-77
2022/11/25 05:13:04;;;;;;;10.00;6.30;;;6.00;99.90;;;;;;5071920;28;20469;-77
2022/11/25 05:15:32;;;;;;;11.40;6.93;;;6.00;99.90;;;;;;5071657;28;20453;-77
2022/11/25 05:18:04;;;;;;;10.00;6.03;;;6.00;99.90;;;;;;5072263;28;20483;-77
2022/11/25 05:20:41;;;;;;;10.70;6.00;;;6.00;99.90;;;;;;5071655;28;20515;-77
2022/11/25 05:23:11;;;;;;;11.30;6.50;;;6.10;99.90;;;;;;5071555;28;20843;-77
2022/11/25 05:25:39;;;;;;;19.57;12.60;;;6.10;99.90;;;;;;5071631;28;20816;-77
2022/11/25 05:28:36;;;;;;;14.43;8.83;;;6.10;99.90;;;;;;5065165;28;20571;-77
2022/11/25 05:31:04;;;;;;;15.70;7.53;;;6.10;99.90;;;;;;5071494;28;20457;-77
2022/11/25 05:33:33;;;;;;;9.27;6.90;;;6.10;99.90;;;;;;5072301;28;20461;-77
2022/11/25 05:36:03;;;;;;;10.67;6.90;;;6.10;99.90;;;;;;5071571;28;20969;-77
2022/11/25 05:38:40;;;;;;;14.33;7.17;;;6.10;99.90;;;;;;5071599;28;20444;-77
2022/11/25 05:41:12;;;;;;;19.97;13.30;;;6.10;99.90;;;;;;5071443;28;20457;-77
2022/11/25 05:43:41;;;;;;;14.20;8.90;;;6.10;99.90;;;;;;5071491;28;20465;-77
2022/11/25 05:46:10;;;;;;;14.83;8.70;;;6.10;99.90;;;;;;5071387;28;20453;-77
2022/11/25 05:48:45;;;;;;;10.83;6.97;;;6.10;99.90;;;;;;5071463;28;20463;-77
2022/11/25 05:51:13;;;;;;;17.03;7.90;;;6.10;99.90;;;;;;5074608;28;20453;-77
2022/11/25 05:53:43;;;;;;;13.50;7.60;;;6.10;99.90;;;;;;5076238;28;20528;-77
2022/11/25 05:56:11;;;;;;;12.10;7.73;;;6.10;99.90;;;;;;5074905;28;20935;-77
2022/11/25 05:58:59;;;;;;;13.80;8.60;;;6.10;99.90;;;;;;5076186;28;20424;-77
2022/11/25 06:01:40;;;;;;;16.20;8.97;;;6.10;99.90;;;;;;5075162;28;20461;-77
2022/11/25 06:04:09;;;;;;;12.93;8.53;;;6.10;99.90;;;;;;5074903;28;20974;-77
2022/11/25 06:06:38;;;;;;;11.93;8.37;;;6.10;99.90;;;;;;5074822;28;20483;-77
2022/11/25 06:09:07;;;;;;;15.30;7.50;;;6.20;99.90;;;;;;5075921;28;20437;-77
2022/11/25 06:11:36;;;;;;;14.67;7.60;;;6.20;99.90;;;;;;5074979;28;20546;-77
2022/11/25 06:14:04;;;;;;;13.23;7.10;;;6.20;99.90;;;;;;5074477;28;20465;-76
2022/11/25 06:16:32;;;;;;;18.70;8.03;;;6.20;99.90;;;;;;5074543;28;20966;-77
2022/11/25 06:19:17;;;;;;;11.50;7.83;;;6.20;99.90;;;;;;5074810;28;20441;-77
2022/11/25 06:21:45;;;;;;;15.03;8.33;;;6.20;99.90;;;;;;5074325;28;20473;-77
2022/11/25 06:24:15;;;;;;;13.33;8.10;;;6.20;99.90;;;;;;5074231;28;20492;-77
2022/11/25 06:26:45;;;;;;;12.17;7.37;;;6.20;99.90;;;;;;5074318;28;20445;-77
2022/11/25 06:29:13;;;;;;;13.13;6.37;;;6.20;99.90;;;;;;5075660;28;20448;-77
2022/11/25 06:31:48;;;;;;;12.33;7.97;;;6.20;99.90;;;;;;5074112;28;20816;-77
2022/11/25 06:34:41;;;;;;;14.73;8.93;;;6.20;99.90;;;;;;5074256;28;20477;-77
2022/11/25 06:37:30;;;;;;;16.33;10.80;;;6.20;99.90;;;;;;5074883;28;20757;-77
2022/11/25 06:39:59;;;;;;;17.73;9.27;;;6.20;99.90;;;;;;5075622;28;20437;-76
2022/11/25 06:42:27;;;;;;;11.57;7.03;;;6.20;99.90;;;;;;5074031;28;20476;-77
2022/11/25 06:44:55;;;;;;;12.40;7.20;;;6.30;99.90;;;;;;5075230;28;20450;-76
2022/11/25 06:47:23;;;;;;;15.33;7.40;;;6.30;99.90;;;;;;5075255;28;20464;-77
2022/11/25 06:49:52;;;;;;;14.87;7.10;;;6.30;99.90;;;;;;5075323;28;20448;-77
2022/11/25 06:52:20;;;;;;;14.20;6.60;;;6.30;99.90;;;;;;5075469;28;20487;-77
2022/11/25 06:54:48;;;;;;;11.37;7.07;;;6.30;99.90;;;;;;5073934;28;21000;-77
2022/11/25 06:57:19;;;;;;;14.77;6.97;;;6.30;99.90;;;;;;5075236;28;20463;-77
2022/11/25 06:59:47;;;;;;;11.23;6.80;;;6.30;99.90;;;;;;5074084;28;20441;-77
2022/11/25 07:02:15;;;;;;;10.13;6.13;;;6.30;99.90;;;;;;5074744;28;21039;-77
2022/11/25 07:04:44;;;;;;;14.53;8.43;;;6.40;99.90;;;;;;5073486;28;20468;-76
2022/11/25 07:07:12;;;;;;;13.90;7.73;;;6.40;99.90;;;;;;5073597;28;20449;-77
2022/11/25 07:09:40;;;;;;;10.87;7.20;;;6.40;99.90;;;;;;5073617;28;20449;-77
2022/11/25 07:12:11;;;;;;;11.47;7.03;;;6.40;99.90;;;;;;5074835;28;21008;-77
2022/11/25 07:14:40;;;;;;;12.67;6.80;;;6.40;99.90;;;;;;5075258;28;20461;-77
2022/11/25 07:17:08;;;;;;;15.23;7.60;;;6.40;99.90;;;;;;5073401;28;20452;-78
2022/11/25 07:19:39;;;;;;;11.00;7.00;;;6.40;99.90;;;;;;5073493;28;20532;-78
2022/11/25 07:22:07;;;;;;;11.83;6.50;;;6.40;99.90;;;;;;5074909;28;20468;-78
2022/11/25 07:24:35;;;;;;;14.73;7.73;;;6.40;99.90;;;;;;5073505;28;20473;-78
2022/11/25 07:27:05;;;;;;;14.43;7.77;;;6.40;99.90;;;;;;5074585;28;20447;-78
2022/11/25 07:29:34;;;;;;;11.70;7.20;;;6.40;99.90;;;;;;5074590;28;20433;-78
2022/11/25 07:32:24;;;;;;;14.03;7.87;;;6.50;99.90;;;;;;5073204;28;20517;-77
2022/11/25 07:34:52;;;;;;;18.90;7.27;;;6.50;99.90;;;;;;5074565;28;20476;-78
2022/11/25 07:37:20;;;;;;;12.90;7.30;;;6.50;99.90;;;;;;5074445;28;20474;-78
2022/11/25 07:39:48;;;;;;;13.37;7.30;;;6.50;99.90;;;;;;5073101;28;20950;-78
2022/11/25 07:42:16;;;;;;;11.37;7.17;;;6.50;99.90;;;;;;5074358;28;20887;-78
2022/11/25 07:44:44;;;;;;;21.30;10.70;;;6.50;99.90;;;;;;5072758;28;20469;-78
2022/11/25 07:47:40;;;;;;;16.70;7.83;;;6.50;99.90;;;;;;5072890;28;20462;-78
2022/11/25 07:50:09;;;;;;;14.97;8.47;;;6.50;99.90;;;;;;5072921;28;20449;-77
2022/11/25 07:52:38;;;;;;;14.57;9.70;;;6.50;99.90;;;;;;5072704;28;20441;-77
2022/11/25 07:55:07;;;;;;;12.83;8.90;;;6.50;99.90;;;;;;5072822;28;20456;-77
2022/11/25 07:57:35;;;;;;;12.67;8.07;;;6.60;99.90;;;;;;5074218;28;20449;-77
2022/11/25 08:00:05;;;;;;;13.90;7.57;;;6.60;99.90;;;;;;5074346;28;20438;-77
2022/11/25 08:02:40;;;;;;;16.23;8.87;;;6.60;99.90;;;;;;5073994;28;20549;-77
2022/11/25 08:05:09;;;;;;;15.97;8.13;;;6.60;99.90;;;;;;5072531;28;20947;-78
2022/11/25 08:07:38;;;;;;;12.40;7.90;;;6.60;99.90;;;;;;5074095;28;20450;-77
2022/11/25 08:10:07;;;;;;;13.20;7.90;;;6.70;99.90;;;;;;5073743;28;20433;-77
2022/11/25 08:12:35;;;;;;;13.33;8.87;;;6.70;99.90;;;;;;5074879;28;20499;-78
2022/11/25 08:15:03;;;;;;;14.80;8.00;;;6.70;99.90;;;;;;5076561;28;20522;-77
2022/11/25 08:17:31;;;;;;;12.07;8.27;;;6.70;99.90;;;;;;5075871;28;20495;-77
2022/11/25 08:20:01;;;;;;;18.60;8.87;;;6.70;99.90;;;;;;5074480;28;20802;-77
2022/11/25 08:22:29;;;;;;;15.23;8.50;;;6.70;99.90;;;;;;5072485;28;20483;-77
2022/11/25 08:24:57;;;;;;;15.13;8.53;;;6.80;99.90;;;;;;5072435;28;20463;-78
2022/11/25 08:27:25;;;;;;;17.90;7.53;;;6.80;99.90;;;;;;5072329;28;20485;-77
2022/11/25 08:29:53;;;;;;;14.43;7.57;;;6.80;99.90;;;;;;5072354;28;20813;-77
2022/11/25 08:32:21;;;;;;;15.50;7.43;;;6.80;99.90;;;;;;5073728;28;20416;-78
2022/11/25 08:34:49;;;;;;;11.87;7.20;;;6.80;99.90;;;;;;5072248;28;20483;-78
2022/11/25 08:37:19;;;;;;;10.80;7.27;;;6.80;99.90;;;;;;5072890;28;20502;-77
2022/11/25 08:39:49;;;;;;;12.23;7.17;;;6.80;99.90;;;;;;5073547;28;20445;-78
2022/11/25 08:42:20;;;;;;;16.80;7.77;;;6.90;99.90;;;;;;5071987;28;20465;-77
2022/11/25 08:44:52;;;;;;;13.57;7.70;;;6.90;99.90;;;;;;5073506;28;20462;-77
2022/11/25 08:47:20;;;;;;;12.07;7.23;;;6.90;99.90;;;;;;5073589;28;20421;-78
2022/11/25 08:49:51;;;;;;;21.67;8.20;;;7.00;99.90;;;;;;5071828;28;20452;-78
2022/11/25 08:52:21;;;;;;;11.07;7.50;;;7.00;99.90;;;;;;5071824;28;20819;-78
2022/11/25 08:54:50;;;;;;;12.13;8.03;;;7.00;99.90;;;;;;5071953;28;20470;-77
2022/11/25 08:57:18;;;;;;;14.33;8.20;;;7.00;99.90;;;;;;5073060;28;20546;-78
2022/11/25 08:59:46;;;;;;;13.23;8.50;;;7.10;99.90;;;;;;5071891;28;20811;-78
2022/11/25 09:02:16;;;;;;;14.03;7.53;;;7.10;99.90;;;;;;5072377;28;20866;-77
2022/11/25 09:04:44;;;;;;;15.20;8.43;;;7.10;99.90;;;;;;5073042;28;20468;-77
2022/11/25 09:07:13;;;;;;;15.07;9.37;;;7.10;99.90;;;;;;5073063;28;20444;-78
2022/11/25 09:09:42;;;;;;;16.87;9.93;;;7.20;99.90;;;;;;5071860;28;20456;-78
2022/11/25 09:12:10;;;;;;;15.47;10.37;;;7.20;99.90;;;;;;5072962;28;20447;-78
2022/11/25 09:14:40;;;;;;;14.27;9.40;;;7.20;99.90;;;;;;5073071;28;20496;-78
2022/11/25 09:17:12;;;;;;;19.80;12.53;;;7.20;99.90;;;;;;5071731;28;20442;-78
2022/11/25 09:19:40;;;;;;;18.03;10.83;;;7.20;99.90;;;;;;5073102;28;20422;-77
2022/11/25 09:22:08;;;;;;;14.83;10.00;;;7.30;99.90;;;;;;5071550;28;20985;-78
2022/11/25 09:24:36;;;;;;;14.03;9.60;;;7.30;99.90;;;;;;5073783;28;20491;-78
2022/11/25 09:27:06;;;;;;;13.77;9.00;;;7.30;99.90;;;;;;5075738;28;20448;-78
2022/11/25 09:29:34;;;;;;;21.07;9.80;;;7.30;99.90;;;;;;5075533;28;20446;-78
2022/11/25 09:32:03;;;;;;;16.87;8.27;;;7.30;99.90;;;;;;5076595;28;20453;-78
2022/11/25 09:34:31;;;;;;;12.77;7.77;;;7.40;99.90;;;;;;5075438;28;20461;-78
2022/11/25 09:37:00;;;;;;;19.60;8.90;;;7.40;99.90;;;;;;5075258;28;20448;-78
2022/11/25 09:39:29;;;;;;;14.40;8.50;;;7.40;99.90;;;;;;5077086;28;20443;-78
2022/11/25 09:48:12;;;;;;;13.40;7.67;;;7.50;99.90;;;;;;5076706;28;20458;-78
2022/11/25 09:50:51;;;;;;;17.30;9.37;;;7.50;99.90;;;;;;5076443;28;20436;-78
2022/11/25 09:53:31;;;;;;;15.33;9.27;;;7.50;99.90;;;;;;5075062;28;20471;-77
2022/11/25 09:56:04;;;;;;;14.73;8.67;;;7.60;99.90;;;;;;5075112;28;20941;-78
2022/11/25 09:58:37;;;;;;;12.10;8.47;;;7.60;99.90;;;;;;5076397;28;20432;-78
2022/11/25 10:01:07;;;;;;;15.37;8.00;;;7.60;99.90;;;;;;5076891;28;20439;-78
2022/11/25 10:03:41;;;;;;;12.47;8.40;;;7.70;99.90;;;;;;5075020;28;20482;-78
2022/11/25 10:06:15;;;;;;;14.03;8.50;;;7.60;99.90;;;;;;5076770;28;20439;-78
2022/11/25 10:08:46;;;;;;;12.47;8.00;;;7.70;99.90;;;;;;5076556;28;20425;-77
2022/11/25 10:11:28;;;;;;;16.23;9.20;;;7.70;99.90;;;;;;5076448;28;20909;-78
2022/11/25 10:14:01;;;;;;;16.00;9.50;;;7.70;99.90;;;;;;5074886;28;20476;-78
2022/11/25 10:16:35;;;;;;;16.20;9.30;;;7.70;99.90;;;;;;5074670;28;20448;-78
2022/11/25 10:19:19;;;;;;;16.30;9.60;;;7.80;99.90;;;;;;5076156;28;20427;-78
2022/11/25 10:21:47;;;;;;;13.70;8.73;;;7.80;99.90;;;;;;5075847;28;20421;-78
2022/11/25 10:24:17;;;;;;;15.03;9.27;;;7.80;99.90;;;;;;5074433;28;20481;-78
2022/11/25 10:26:49;;;;;;;15.30;9.00;;;7.80;99.90;;;;;;5074557;28;20452;-78
2022/11/25 10:29:24;;;;;;;17.77;9.90;;;7.80;99.90;;;;;;5074388;28;20445;-78
2022/11/25 10:31:58;;;;;;;12.97;9.30;;;7.90;99.90;;;;;;5074853;28;20946;-78
2022/11/25 10:34:35;;;;;;;21.53;10.30;;;7.90;99.90;;;;;;5074683;28;20482;-78
2022/11/25 10:37:12;;;;;;;14.40;8.53;;;7.90;99.90;;;;;;5074737;28;20413;-78
2022/11/25 10:39:40;;;;;;;15.30;8.70;;;8.00;99.90;;;;;;5076204;28;20782;-78
2022/11/25 10:42:16;;;;;;;15.47;9.90;;;7.90;99.90;;;;;;5074175;28;20502;-78
2022/11/25 10:44:45;;;;;;;14.83;9.50;;;8.00;99.90;;;;;;5075436;28;20452;-77
2022/11/25 10:47:33;;;;;;;17.40;10.77;;;8.00;99.90;;;;;;5074183;28;20513;-78
2022/11/25 10:50:14;;;;;;;15.93;10.40;;;8.00;99.90;;;;;;5075620;28;20458;-78
2022/11/25 10:52:50;;;;;;;15.90;9.93;;;8.10;99.90;;;;;;5075486;28;20940;-78
2022/11/25 10:55:23;;;;;;;16.90;9.40;;;8.10;99.90;;;;;;5075514;28;20424;-78
2022/11/25 10:57:51;;;;;;;18.47;10.20;;;8.10;99.90;;;;;;5075439;28;20855;-78
2022/11/25 11:00:29;;;;;;;14.37;8.53;;;8.20;99.90;;;;;;5075341;28;20425;-78
2022/11/25 11:02:58;;;;;;;15.10;9.13;;;8.20;99.90;;;;;;5073663;28;20530;-78
2022/11/25 11:05:29;;;;;;;16.17;9.60;;;8.30;99.90;;;;;;5073605;28;20467;-78
2022/11/25 11:08:17;;;;;;;14.93;10.00;;;8.30;99.90;;;;;;5075361;28;20443;-78
2022/11/25 11:10:46;;;;;;;15.40;9.30;;;8.30;99.90;;;;;;5073852;28;20874;-78
2022/11/25 11:13:24;;;;;;;15.80;11.03;;;8.30;99.90;;;;;;5075027;28;20567;-78
2022/11/25 11:15:54;;;;;;;16.77;10.07;;;8.40;99.90;;;;;;5073727;28;20455;-78
2022/11/25 11:18:28;;;;;;;17.57;10.37;;;8.40;99.90;;;;;;5073889;28;20456;-78
2022/11/25 11:20:58;;;;;;;15.77;11.57;;;8.50;99.90;;;;;;5073414;28;20900;-78
2022/11/25 11:23:27;;;;;;;11.03;8.07;;;8.50;99.90;;;;;;5074420;28;20997;-78
2022/11/25 11:25:59;;;;;;;13.47;10.83;;;8.60;99.90;;;;;;5073892;28;20452;-78
2022/11/25 11:28:38;;;;;;;16.63;11.97;;;8.60;99.90;;;;;;5074828;28;20447;-78
2022/11/25 11:31:17;;;;;;;19.27;11.37;;;8.70;99.90;;;;;;5073308;28;20499;-76
2022/11/25 11:33:55;;;;;;;19.47;12.30;;;8.80;99.90;;;;;;5073145;28;20493;-77
2022/11/25 11:36:34;;;;;;;16.70;12.80;;;8.80;99.90;;;;;;5074602;28;20780;-78
2022/11/25 11:39:25;;;;;;;18.70;14.40;;;8.90;99.90;;;;;;5073084;28;20811;-78
2022/11/25 11:42:00;;;;;;;18.03;15.00;;;9.00;99.90;;;;;;5074879;28;20535;-78
2022/11/25 11:44:39;;;;;;;18.70;14.90;;;9.00;99.90;;;;;;5073656;28;20508;-78
2022/11/25 11:47:19;;;;;;;19.10;14.67;;;9.10;99.90;;;;;;5075063;28;20424;-77
2022/11/25 11:50:22;;;;;;;19.93;15.50;;;9.10;99.90;;;;;;5073642;28;20449;-78
2022/11/25 11:52:57;;;;;;;20.10;16.90;;;9.20;99.90;;;;;;5075403;28;20428;-78
2022/11/25 11:55:58;;;;;;;19.60;16.73;;;9.20;99.90;;;;;;5074594;28;20455;-78
2022/11/25 11:58:57;;;;;;;19.13;15.70;;;9.30;99.90;;;;;;5038575;28;20461;-78
2022/11/25 12:01:36;;;;;;;20.10;16.40;;;9.30;99.90;;;;;;5072672;28;20550;-78
2022/11/25 12:04:15;;;;;;;19.80;16.83;;;9.30;99.90;;;;;;5072392;28;20895;-78
2022/11/25 12:06:49;;;;;;;21.20;18.27;;;9.40;99.90;;;;;;5074068;28;20452;-78
2022/11/25 12:09:22;;;;;;;19.77;16.37;;;9.40;99.90;;;;;;5073736;28;20430;-78
2022/11/25 12:11:55;;;;;;;21.53;19.13;;;9.40;99.90;;;;;;5072328;28;20437;-78
2022/11/25 12:14:35;;;;;;;22.63;18.17;;;9.40;99.90;;;;;;5072325;28;20893;-77
2022/11/25 12:17:10;;;;;;;22.53;18.70;;;9.40;99.90;;;;;;5072359;28;20448;-78
2022/11/25 12:19:49;;;;;;;22.73;19.40;;;9.50;99.90;;;;;;5072414;28;20433;-78
2022/11/25 12:22:23;;;;;;;20.57;17.93;;;9.50;99.90;;;;;;5072374;28;20437;-78
2022/11/25 12:24:56;;;;;;;23.37;18.80;;;9.50;99.90;;;;;;5073455;28;20472;-78
2022/11/25 12:27:30;;;;;;;26.53;18.90;;;9.60;99.90;;;;;;5073861;28;20429;-78
2022/11/25 12:30:03;;;;;;;24.80;19.13;;;9.60;99.90;;;;;;5073694;28;20433;-78
2022/11/25 12:32:46;;;;;;;22.83;20.47;;;9.60;99.90;;;;;;5072328;28;20429;-78
2022/11/25 12:35:22;;;;;;;23.50;20.97;;;9.70;99.90;;;;;;5074266;28;20842;-78
2022/11/25 12:37:56;;;;;;;22.43;20.00;;;9.70;99.90;;;;;;5073695;28;20844;-78
2022/11/25 12:40:33;;;;;;;25.00;21.97;;;9.70;99.90;;;;;;5072469;28;20966;-78
2022/11/25 12:43:13;;;;;;;26.20;21.57;;;9.70;99.90;;;;;;5073144;28;20471;-78
2022/11/25 12:45:42;;;;;;;23.17;20.90;;;9.80;99.90;;;;;;5072016;28;20429;-78
2022/11/25 12:48:12;;;;;;;24.50;20.40;;;9.80;99.90;;;;;;5071993;28;20479;-77
2022/11/25 12:50:56;;;;;;;24.00;21.03;;;9.90;99.90;;;;;;5072006;28;20486;-78
2022/11/25 12:53:32;;;;;;;24.23;21.37;;;9.90;99.90;;;;;;5073460;28;20496;-77
2022/11/25 12:56:05;;;;;;;24.10;21.53;;;9.90;99.90;;;;;;5072031;28;20437;-77
2022/11/25 12:58:58;;;;;;;24.10;21.60;;;10.00;99.90;;;;;;5072045;28;20430;-77
2022/11/25 13:01:45;;;;;;;23.70;21.10;;;10.00;99.90;;;;;;5077952;28;20468;-78
2022/11/25 13:04:44;;;;;;;21.43;19.40;;;10.00;99.90;;;;;;5075879;28;20469;-77
2022/11/25 13:07:26;;;;;;;24.20;20.80;;;10.00;99.90;;;;;;5075991;28;20524;-77
2022/11/25 13:10:27;;;;;;;23.87;20.40;;;10.00;99.90;;;;;;5075976;28;20505;-78
2022/11/25 13:13:13;;;;;;;24.23;21.40;;;10.00;99.90;;;;;;5068280;28;20472;-78
2022/11/25 13:15:47;;;;;;;22.60;20.27;;;10.10;99.90;;;;;;5077656;28;20467;-77
2022/11/25 13:18:19;;;;;;;23.00;20.13;;;10.00;99.90;;;;;;5077348;28;20460;-78
2022/11/25 13:20:52;;;;;;;22.50;20.13;;;10.10;99.90;;;;;;5077062;28;20421;-77
2022/11/25 13:23:28;;;;;;;22.77;19.50;;;10.10;99.90;;;;;;5077171;28;20819;-78
2022/11/25 13:26:43;;;;;;;24.17;20.90;;;10.10;99.90;;;;;;5075582;28;20914;-77